Time;durP1;ratioP1;P1;durP2;ratioP2;P2;SDS_P1;SDS_P2;PMS_P1;PMS_P2;Temp;Humidity;BMP_temperature;BMP_pressure;BME280_temperature;BME280_humidity;BME280_pressure;Samples;Min_cycle;Max_cycle;Signal;HPM_P1;HPM_P2
2022/07/07 00:03:06;;;;;;;0.20;0.00;;;23.90;99.90;;;;;;21245454;28;20214;-73
2022/07/07 00:13:12;;;;;;;0.20;0.00;;;24.00;99.90;;;;;;21244815;28;20231;-72
2022/07/07 00:23:16;;;;;;;0.20;0.00;;;23.90;99.90;;;;;;21243079;28;20266;-73
2022/07/07 00:33:22;;;;;;;0.20;0.00;;;23.80;99.90;;;;;;21225620;28;20223;-72
2022/07/07 00:43:26;;;;;;;0.20;0.00;;;23.70;99.90;;;;;;21243636;28;20191;-73
2022/07/07 00:53:32;;;;;;;0.20;0.00;;;23.70;99.90;;;;;;21243022;28;20234;-73
2022/07/07 01:03:36;;;;;;;0.20;0.00;;;23.50;99.90;;;;;;21242584;28;20219;-73
2022/07/07 01:13:41;;;;;;;0.20;0.00;;;23.40;99.90;;;;;;21241919;28;20219;-72
2022/07/07 01:23:47;;;;;;;0.20;0.00;;;23.20;99.90;;;;;;21223120;28;20252;-72
2022/07/07 01:33:50;;;;;;;0.20;0.00;;;22.90;99.90;;;;;;21240119;28;20231;-73
2022/07/07 01:43:56;;;;;;;0.20;0.00;;;23.10;99.90;;;;;;21257355;28;20191;-72
2022/07/07 01:53:59;;;;;;;0.20;0.00;;;22.90;99.90;;;;;;21256119;28;20246;-74
2022/07/07 02:04:05;;;;;;;0.20;0.00;;;22.80;99.90;;;;;;21237702;28;20207;-74
2022/07/07 02:14:09;;;;;;;0.20;0.00;;;22.70;99.90;;;;;;21255040;28;20234;-73
2022/07/07 02:24:14;;;;;;;0.20;0.00;;;22.60;99.90;;;;;;21235743;28;20223;-74
2022/07/07 02:34:18;;;;;;;0.20;0.00;;;22.50;99.90;;;;;;21253080;28;21186;-73
2022/07/07 02:44:23;;;;;;;0.20;0.00;;;22.40;99.90;;;;;;21234802;28;20272;-73
2022/07/07 02:54:27;;;;;;;0.20;0.00;;;22.30;99.90;;;;;;21250908;28;20231;-72
2022/07/07 03:04:32;;;;;;;0.20;0.00;;;22.40;99.90;;;;;;21250254;28;20259;-73
2022/07/07 03:14:36;;;;;;;0.20;0.00;;;22.50;99.90;;;;;;21214514;28;20233;-72
2022/07/07 03:24:41;;;;;;;0.20;0.00;;;22.60;99.90;;;;;;21248768;28;20228;-70
2022/07/07 03:34:45;;;;;;;0.20;0.00;;;22.90;99.90;;;;;;21247029;28;20223;-73
2022/07/07 03:44:50;;;;;;;0.20;0.00;;;22.70;99.90;;;;;;21289682;27;20195;-75
2022/07/07 03:54:53;;;;;;;0.20;0.00;;;22.70;99.90;;;;;;21331801;27;20239;-74
2022/07/07 04:04:59;;;;;;;0.20;0.00;;;22.70;99.90;;;;;;21330029;27;20194;-74
2022/07/07 04:15:04;;;;;;;0.20;0.10;;;22.60;99.90;;;;;;21329733;27;20237;-75
2022/07/07 04:25:11;;;;;;;0.20;0.00;;;22.60;99.90;;;;;;21311857;27;20214;-74
2022/07/07 04:35:15;;;;;;;0.20;0.00;;;22.60;99.90;;;;;;21230885;28;20208;-74
2022/07/07 04:45:20;;;;;;;0.20;0.00;;;22.50;99.90;;;;;;21243299;28;20199;-73
2022/07/07 04:55:24;;;;;;;0.20;0.03;;;22.60;99.90;;;;;;21241975;28;20227;-75
2022/07/07 05:05:29;;;;;;;0.20;0.00;;;22.80;99.90;;;;;;21241232;28;20195;-72
2022/07/07 05:15:33;;;;;;;0.20;0.10;;;22.90;99.90;;;;;;21233405;28;20231;-73
2022/07/07 05:25:38;;;;;;;0.20;0.00;;;23.20;99.90;;;;;;21238383;28;20223;-74
2022/07/07 05:35:42;;;;;;;0.20;0.00;;;23.30;99.90;;;;;;21256202;28;20219;-74
2022/07/07 05:45:47;;;;;;;0.20;0.00;;;23.20;99.90;;;;;;21254246;28;20191;-74
2022/07/07 05:55:51;;;;;;;0.20;0.00;;;23.00;99.90;;;;;;21253831;28;20215;-74
2022/07/07 06:05:57;;;;;;;0.20;0.00;;;23.10;99.90;;;;;;21234055;28;20213;-74
2022/07/07 06:16:00;;;;;;;0.20;0.00;;;23.70;99.90;;;;;;21250447;28;20227;-73
2022/07/07 06:26:06;;;;;;;0.20;0.00;;;23.70;99.90;;;;;;21249175;28;20223;-73
2022/07/07 06:36:10;;;;;;;0.20;0.00;;;24.10;99.90;;;;;;21248347;28;20234;-75
2022/07/07 06:46:15;;;;;;;0.20;0.00;;;24.20;99.90;;;;;;21249201;28;20195;-72
2022/07/07 06:56:19;;;;;;;0.20;0.00;;;24.50;99.90;;;;;;21245538;28;20283;-76
2022/07/07 07:06:25;;;;;;;0.20;0.00;;;24.70;99.90;;;;;;21244074;28;20297;-79
2022/07/07 07:16:29;;;;;;;0.20;0.00;;;25.00;99.90;;;;;;21225466;28;20223;-77
2022/07/07 07:26:35;;;;;;;0.20;0.00;;;25.40;99.90;;;;;;21243672;28;20196;-75
2022/07/07 07:36:38;;;;;;;0.20;0.10;;;25.30;99.90;;;;;;21243552;28;20226;-75
2022/07/07 07:46:44;;;;;;;0.20;0.10;;;25.30;99.90;;;;;;21264767;27;20195;-72
2022/07/07 07:56:48;;;;;;;0.20;0.00;;;25.80;99.90;;;;;;21306509;27;20214;-71
2022/07/07 08:06:53;;;;;;;0.20;0.00;;;26.40;99.90;;;;;;21304231;27;20213;-72
2022/07/07 08:16:57;;;;;;;0.20;0.00;;;26.80;99.90;;;;;;21321374;27;20235;-73
2022/07/07 08:27:03;;;;;;;0.20;0.00;;;27.40;99.90;;;;;;21298631;27;20251;-75
2022/07/07 08:37:07;;;;;;;0.20;0.10;;;27.60;99.90;;;;;;21204648;28;20222;-75
2022/07/07 08:47:13;;;;;;;0.20;0.00;;;27.80;99.90;;;;;;21220105;28;20204;-77
2022/07/07 08:57:17;;;;;;;0.20;0.00;;;27.90;99.90;;;;;;21238090;28;20256;-71
2022/07/07 09:07:22;;;;;;;0.20;0.00;;;27.30;99.90;;;;;;21238960;28;20195;-72
2022/07/07 09:17:31;;;;;;;0.20;0.00;;;27.40;99.90;;;;;;21219407;28;20238;-71
2022/07/07 09:27:54;;;;;;;0.20;0.00;;;27.70;99.90;;;;;;21230399;28;20182;-69
2022/07/07 09:38:17;;;;;;;0.20;0.00;;;28.00;99.90;;;;;;21302711;28;20282;-69
2022/07/07 09:48:22;;;;;;;0.20;0.00;;;28.30;99.90;;;;;;21300363;28;20244;-69
2022/07/07 09:58:26;;;;;;;0.20;0.00;;;28.10;99.90;;;;;;21308051;27;20226;-69
2022/07/07 10:08:33;;;;;;;0.20;0.00;;;28.20;99.90;;;;;;21318345;27;20199;-67
2022/07/07 10:18:37;;;;;;;0.20;0.00;;;28.10;99.90;;;;;;21334351;27;20238;-69
2022/07/07 10:28:54;;;;;;;0.20;0.10;;;27.70;99.90;;;;;;21334869;27;20195;-68
2022/07/07 10:38:58;;;;;;;0.20;0.00;;;27.90;99.90;;;;;;21334191;27;20765;-68
2022/07/07 10:49:13;;;;;;;0.20;0.10;;;28.10;99.90;;;;;;21333252;27;20197;-68
2022/07/07 10:59:17;;;;;;;0.20;0.00;;;28.40;99.90;;;;;;21330828;27;20222;-69
2022/07/07 11:09:23;;;;;;;0.20;0.00;;;28.70;99.90;;;;;;21329775;27;20226;-70
2022/07/07 11:19:33;;;;;;;0.20;0.00;;;28.60;99.90;;;;;;21310589;27;20234;-69
2022/07/07 11:29:39;;;;;;;0.20;0.00;;;29.50;99.90;;;;;;21311777;27;20187;-69
2022/07/07 11:39:42;;;;;;;0.20;0.00;;;30.10;99.90;;;;;;21328439;27;20218;-69
2022/07/07 11:49:48;;;;;;;0.20;0.00;;;30.50;99.90;;;;;;21326331;27;20385;-69
2022/07/07 11:59:52;;;;;;;0.20;0.00;;;30.90;99.90;;;;;;21325998;27;20222;-70
2022/07/07 12:09:57;;;;;;;0.20;0.00;;;30.90;99.90;;;;;;21327020;27;20254;-68
2022/07/07 12:20:02;;;;;;;0.20;0.00;;;31.30;99.90;;;;;;21324754;27;20242;-69
2022/07/07 12:30:08;;;;;;;0.20;0.00;;;31.40;99.90;;;;;;21324711;27;20195;-67
2022/07/07 12:40:15;;;;;;;0.20;0.00;;;32.50;99.90;;;;;;21324703;27;20222;-69
2022/07/07 12:50:21;;;;;;;0.20;0.00;;;32.00;99.90;;;;;;21324618;27;20191;-69
2022/07/07 13:00:27;;;;;;;0.20;0.00;;;33.00;99.90;;;;;;21323551;27;20233;-69
2022/07/07 13:10:32;;;;;;;0.20;0.00;;;33.00;99.90;;;;;;21323164;27;20198;-69
2022/07/07 13:20:36;;;;;;;0.20;0.00;;;33.30;99.90;;;;;;21321005;28;20241;-69
2022/07/07 13:30:41;;;;;;;0.20;0.00;;;33.80;99.90;;;;;;21322075;27;20236;-68
2022/07/07 13:40:46;;;;;;;0.20;0.00;;;34.10;99.90;;;;;;21319699;27;20218;-69
2022/07/07 13:50:54;;;;;;;0.20;0.00;;;32.90;99.90;;;;;;21316925;27;20195;-68
2022/07/07 14:00:58;;;;;;;0.20;0.00;;;34.20;99.90;;;;;;21315833;27;20226;-70
2022/07/07 14:11:03;;;;;;;0.20;0.00;;;34.20;99.90;;;;;;21314835;27;20201;-69
2022/07/07 14:21:07;;;;;;;0.20;0.00;;;34.00;99.90;;;;;;21324083;27;20227;-69
2022/07/07 14:31:12;;;;;;;0.20;0.00;;;33.70;99.90;;;;;;21313214;27;20187;-70
2022/07/07 14:41:16;;;;;;;0.20;0.00;;;33.70;99.90;;;;;;21330639;27;20234;-69
2022/07/07 14:51:21;;;;;;;0.20;0.00;;;34.40;99.90;;;;;;21307799;27;20202;-70
2022/07/07 15:01:25;;;;;;;0.20;0.00;;;35.90;99.90;;;;;;21307970;27;20229;-70
2022/07/07 15:11:31;;;;;;;0.20;0.00;;;35.90;99.90;;;;;;21307075;27;20187;-68
2022/07/07 15:21:35;;;;;;;0.20;0.00;;;35.00;99.90;;;;;;21307801;27;20230;-68
2022/07/07 15:31:43;;;;;;;0.20;0.00;;;33.30;99.90;;;;;;21326055;27;20183;-69
2022/07/07 15:41:46;;;;;;;0.20;0.00;;;33.50;99.90;;;;;;21307432;27;20214;-71
2022/07/07 15:51:53;;;;;;;0.20;0.00;;;34.00;99.90;;;;;;21325981;27;20203;-70
2022/07/07 16:01:57;;;;;;;0.20;0.00;;;32.90;99.90;;;;;;21325310;27;20229;-70
2022/07/07 16:12:03;;;;;;;0.20;0.00;;;32.60;99.90;;;;;;21304981;27;20190;-69
2022/07/07 16:22:07;;;;;;;0.20;0.00;;;29.80;99.90;;;;;;21303690;27;20237;-71
2022/07/07 16:32:13;;;;;;;0.20;0.03;;;28.40;99.90;;;;;;21301925;27;20202;-69
2022/07/07 16:42:16;;;;;;;0.20;0.00;;;28.50;99.90;;;;;;21244723;28;20219;-68
2022/07/07 16:52:22;;;;;;;0.20;0.00;;;28.10;99.90;;;;;;21332041;27;20198;-68
2022/07/07 17:02:25;;;;;;;0.20;0.10;;;29.70;99.90;;;;;;21341959;27;20214;-68
2022/07/07 17:12:31;;;;;;;0.20;0.00;;;29.20;99.90;;;;;;21411039;27;20190;-69
2022/07/07 17:22:34;;;;;;;0.20;0.00;;;28.80;99.90;;;;;;21392560;27;20230;-68
2022/07/07 17:32:40;;;;;;;0.20;0.00;;;27.80;99.90;;;;;;21329723;28;20221;-69
2022/07/07 17:42:44;;;;;;;0.20;0.00;;;28.00;99.90;;;;;;21330008;28;20226;-69
2022/07/07 17:52:50;;;;;;;0.20;0.00;;;28.40;99.90;;;;;;21330229;28;20198;-70
2022/07/07 18:02:53;;;;;;;0.20;0.00;;;30.80;99.90;;;;;;21404217;27;20251;-70
2022/07/07 18:12:59;;;;;;;0.20;0.00;;;29.20;99.90;;;;;;21397123;27;20190;-69
2022/07/07 18:23:03;;;;;;;0.20;0.00;;;29.10;99.90;;;;;;21378423;27;20230;-70
2022/07/07 18:33:08;;;;;;;0.20;0.00;;;29.50;99.90;;;;;;21314513;27;20188;-70
2022/07/07 18:43:12;;;;;;;0.20;0.00;;;29.60;99.90;;;;;;21245053;28;20215;-68
2022/07/07 18:53:17;;;;;;;0.20;0.00;;;29.10;99.90;;;;;;21254229;28;20192;-70
2022/07/07 19:03:21;;;;;;;0.20;0.10;;;28.40;99.90;;;;;;21411874;27;20221;-68
2022/07/07 19:13:27;;;;;;;0.20;0.00;;;27.30;99.90;;;;;;21423378;27;20205;-69
2022/07/07 19:23:31;;;;;;;0.20;0.00;;;26.70;99.90;;;;;;21405123;27;20229;-68
2022/07/07 19:33:38;;;;;;;0.20;0.00;;;26.30;99.90;;;;;;21398046;27;20202;-68
2022/07/07 19:43:42;;;;;;;0.20;0.00;;;26.20;99.90;;;;;;21334482;27;20275;-69
2022/07/07 19:53:48;;;;;;;0.20;0.00;;;26.10;99.90;;;;;;21317265;27;20255;-69
2022/07/07 20:03:51;;;;;;;0.20;0.00;;;25.90;99.90;;;;;;21334636;27;20218;-68
2022/07/07 20:13:57;;;;;;;0.20;0.00;;;25.80;99.90;;;;;;21321938;27;20221;-69
2022/07/07 20:24:01;;;;;;;0.20;0.00;;;25.70;99.90;;;;;;21313377;27;20226;-68
2022/07/07 20:34:06;;;;;;;0.20;0.00;;;25.50;99.90;;;;;;21288905;27;20213;-70
2022/07/07 20:44:10;;;;;;;0.20;0.10;;;25.10;99.90;;;;;;21264491;27;20198;-71
2022/07/07 20:54:15;;;;;;;0.20;0.00;;;24.90;99.90;;;;;;21311739;27;20220;-70
2022/07/07 21:04:19;;;;;;;0.20;0.00;;;24.70;99.90;;;;;;21294658;27;20229;-70
2022/07/07 21:14:25;;;;;;;0.20;0.00;;;24.60;99.90;;;;;;21308221;27;20199;-69
2022/07/07 21:24:29;;;;;;;0.20;0.00;;;24.60;99.90;;;;;;21297268;28;20233;-68
2022/07/07 21:34:34;;;;;;;0.20;0.00;;;24.40;99.90;;;;;;21278281;28;20190;-70
2022/07/07 21:44:40;;;;;;;0.20;0.00;;;24.20;99.90;;;;;;21290043;28;20195;-70
2022/07/07 21:54:45;;;;;;;0.20;0.00;;;24.10;99.90;;;;;;21328201;27;20221;-68
2022/07/07 22:15:24;;;;;;;0.20;0.00;;;24.10;99.90;;;;;;21331070;27;20260;-69
2022/07/07 22:25:28;;;;;;;0.20;0.00;;;23.80;99.90;;;;;;21428992;27;20233;-69
2022/07/07 22:35:33;;;;;;;0.20;0.00;;;24.00;99.90;;;;;;21332779;27;20215;-69
2022/07/07 22:45:36;;;;;;;0.20;0.00;;;23.80;99.90;;;;;;21326648;27;20216;-70
2022/07/07 22:55:42;;;;;;;0.20;0.00;;;23.40;99.90;;;;;;21340963;27;20247;-68
2022/07/07 23:05:45;;;;;;;0.20;0.00;;;23.40;99.90;;;;;;21340096;27;20191;-70
2022/07/07 23:15:50;;;;;;;0.20;0.00;;;23.30;99.90;;;;;;21322395;27;20222;-69
2022/07/07 23:25:54;;;;;;;0.20;0.00;;;23.40;99.90;;;;;;21340185;27;20223;-69
2022/07/07 23:35:59;;;;;;;0.20;0.00;;;23.30;99.90;;;;;;21321592;27;20233;-70
2022/07/07 23:46:04;;;;;;;0.20;0.00;;;23.00;99.90;;;;;;21341504;27;20198;-70
2022/07/07 23:56:09;;;;;;;0.20;0.00;;;22.60;99.90;;;;;;21340819;27;20219;-70
